Berja, Spain
Current Conditions -  °F | °C
As of 6:30 AM on Friday 28 Nov 2014 (Local Time) from LEAM Reporting Station
Light Rain Light Rain  
Wind Chill: 59°   Ceiling: 6000
Heat Index: 59°   Visibility: 6mi
Dew Point: 55°   Wind: 5mph
Humidity: 88%   Direction: 50°NE
Pressure: 29.23"   Gusts: NA
Location:  36.85°N, 2.95°W
Report Text: LEAM 280530Z 05004KT 020V080 9999 -RA FEW015 BKN060 15/13 Q0990
Loading
Personal Weather Stations






























Interactive Weather Map New forecast layout! Learn more

10-Day Weather Forecast

Advertisements
Track Severe Weather on mobile